sensor_id;sensor_type;location;lat;lon;timestamp;P1;durP1;ratioP1;P2;durP2;ratioP2
75129;SDS011;63703;44.716;37.846;2023-04-24T00:01:03;4.03;;;1.80;;
75129;SDS011;63703;44.716;37.846;2023-04-24T00:03:32;6.30;;;1.83;;
75129;SDS011;63703;44.716;37.846;2023-04-24T00:05:58;4.70;;;1.42;;
75129;SDS011;63703;44.716;37.846;2023-04-24T00:08:26;7.88;;;3.20;;
75129;SDS011;63703;44.716;37.846;2023-04-24T00:10:52;4.82;;;2.10;;
75129;SDS011;63703;44.716;37.846;2023-04-24T00:13:18;3.72;;;1.63;;
75129;SDS011;63703;44.716;37.846;2023-04-24T00:15:44;7.10;;;2.63;;
75129;SDS011;63703;44.716;37.846;2023-04-24T00:18:09;3.50;;;1.75;;
75129;SDS011;63703;44.716;37.846;2023-04-24T00:20:35;6.43;;;2.08;;
75129;SDS011;63703;44.716;37.846;2023-04-24T00:23:01;4.80;;;1.52;;
75129;SDS011;63703;44.716;37.846;2023-04-24T00:25:27;4.47;;;2.58;;
75129;SDS011;63703;44.716;37.846;2023-04-24T00:27:53;3.95;;;1.88;;
75129;SDS011;63703;44.716;37.846;2023-04-24T00:30:19;6.78;;;2.08;;
75129;SDS011;63703;44.716;37.846;2023-04-24T00:32:45;4.32;;;1.55;;
75129;SDS011;63703;44.716;37.846;2023-04-24T00:35:11;4.60;;;2.33;;
75129;SDS011;63703;44.716;37.846;2023-04-24T00:37:37;4.88;;;2.10;;
75129;SDS011;63703;44.716;37.846;2023-04-24T00:40:03;4.60;;;2.15;;
75129;SDS011;63703;44.716;37.846;2023-04-24T00:42:30;4.22;;;1.95;;
75129;SDS011;63703;44.716;37.846;2023-04-24T00:44:56;4.40;;;1.10;;
75129;SDS011;63703;44.716;37.846;2023-04-24T00:47:23;3.85;;;1.67;;
75129;SDS011;63703;44.716;37.846;2023-04-24T00:49:49;3.80;;;2.00;;
75129;SDS011;63703;44.716;37.846;2023-04-24T00:52:15;4.38;;;2.00;;
75129;SDS011;63703;44.716;37.846;2023-04-24T00:54:46;4.43;;;1.75;;
75129;SDS011;63703;44.716;37.846;2023-04-24T00:57:12;4.28;;;1.67;;
75129;SDS011;63703;44.716;37.846;2023-04-24T00:59:42;3.08;;;0.90;;
75129;SDS011;63703;44.716;37.846;2023-04-24T01:02:09;3.67;;;1.85;;
75129;SDS011;63703;44.716;37.846;2023-04-24T01:04:36;5.13;;;1.25;;
75129;SDS011;63703;44.716;37.846;2023-04-24T01:07:03;5.03;;;1.50;;
75129;SDS011;63703;44.716;37.846;2023-04-24T01:09:36;2.72;;;1.75;;
75129;SDS011;63703;44.716;37.846;2023-04-24T01:12:04;4.15;;;1.15;;
75129;SDS011;63703;44.716;37.846;2023-04-24T01:14:30;4.47;;;3.78;;
75129;SDS011;63703;44.716;37.846;2023-04-24T01:16:56;4.90;;;2.03;;
75129;SDS011;63703;44.716;37.846;2023-04-24T01:19:22;9.63;;;2.92;;
75129;SDS011;63703;44.716;37.846;2023-04-24T01:21:49;6.80;;;1.80;;
75129;SDS011;63703;44.716;37.846;2023-04-24T01:24:18;3.35;;;1.80;;
75129;SDS011;63703;44.716;37.846;2023-04-24T01:26:45;3.90;;;1.08;;
75129;SDS011;63703;44.716;37.846;2023-04-24T01:29:11;3.80;;;1.38;;
75129;SDS011;63703;44.716;37.846;2023-04-24T01:31:38;3.65;;;1.63;;
75129;SDS011;63703;44.716;37.846;2023-04-24T01:34:05;3.67;;;1.23;;
75129;SDS011;63703;44.716;37.846;2023-04-24T01:36:32;2.83;;;1.20;;
75129;SDS011;63703;44.716;37.846;2023-04-24T01:39:00;4.07;;;1.27;;
75129;SDS011;63703;44.716;37.846;2023-04-24T01:41:26;3.08;;;1.08;;
75129;SDS011;63703;44.716;37.846;2023-04-24T01:43:53;3.75;;;1.15;;
75129;SDS011;63703;44.716;37.846;2023-04-24T01:46:20;4.35;;;1.65;;
75129;SDS011;63703;44.716;37.846;2023-04-24T01:48:46;3.65;;;2.60;;
75129;SDS011;63703;44.716;37.846;2023-04-24T01:51:12;3.10;;;1.35;;
75129;SDS011;63703;44.716;37.846;2023-04-24T01:53:38;3.30;;;1.35;;
75129;SDS011;63703;44.716;37.846;2023-04-24T01:56:04;4.20;;;2.90;;
75129;SDS011;63703;44.716;37.846;2023-04-24T01:58:30;3.05;;;1.70;;
75129;SDS011;63703;44.716;37.846;2023-04-24T02:00:57;4.55;;;1.88;;
75129;SDS011;63703;44.716;37.846;2023-04-24T02:03:24;3.38;;;1.83;;
75129;SDS011;63703;44.716;37.846;2023-04-24T02:05:51;4.47;;;1.50;;
75129;SDS011;63703;44.716;37.846;2023-04-24T02:08:17;6.50;;;2.60;;
75129;SDS011;63703;44.716;37.846;2023-04-24T02:10:43;3.03;;;1.52;;
75129;SDS011;63703;44.716;37.846;2023-04-24T02:13:09;4.38;;;1.95;;
75129;SDS011;63703;44.716;37.846;2023-04-24T02:15:35;4.13;;;2.60;;
75129;SDS011;63703;44.716;37.846;2023-04-24T02:18:02;4.43;;;1.70;;
75129;SDS011;63703;44.716;37.846;2023-04-24T02:20:30;5.20;;;1.85;;
75129;SDS011;63703;44.716;37.846;2023-04-24T02:22:59;8.23;;;1.67;;
75129;SDS011;63703;44.716;37.846;2023-04-24T02:25:25;5.20;;;2.28;;
75129;SDS011;63703;44.716;37.846;2023-04-24T02:27:54;5.07;;;1.77;;
75129;SDS011;63703;44.716;37.846;2023-04-24T02:30:20;5.50;;;1.80;;
75129;SDS011;63703;44.716;37.846;2023-04-24T02:32:46;7.32;;;3.35;;
75129;SDS011;63703;44.716;37.846;2023-04-24T02:35:12;3.80;;;1.77;;
75129;SDS011;63703;44.716;37.846;2023-04-24T02:37:38;6.93;;;2.65;;
75129;SDS011;63703;44.716;37.846;2023-04-24T02:40:04;5.22;;;1.85;;
75129;SDS011;63703;44.716;37.846;2023-04-24T02:42:31;5.45;;;1.90;;
75129;SDS011;63703;44.716;37.846;2023-04-24T02:44:57;4.50;;;2.03;;
75129;SDS011;63703;44.716;37.846;2023-04-24T02:47:23;6.95;;;3.42;;
75129;SDS011;63703;44.716;37.846;2023-04-24T02:49:49;8.98;;;3.30;;
75129;SDS011;63703;44.716;37.846;2023-04-24T02:52:15;5.95;;;2.63;;
75129;SDS011;63703;44.716;37.846;2023-04-24T02:54:42;5.78;;;2.35;;
75129;SDS011;63703;44.716;37.846;2023-04-24T02:57:08;6.80;;;3.58;;
75129;SDS011;63703;44.716;37.846;2023-04-24T02:59:35;6.75;;;3.15;;
75129;SDS011;63703;44.716;37.846;2023-04-24T03:02:01;5.35;;;2.40;;
75129;SDS011;63703;44.716;37.846;2023-04-24T03:04:27;5.93;;;3.70;;
75129;SDS011;63703;44.716;37.846;2023-04-24T03:06:53;6.90;;;3.03;;
75129;SDS011;63703;44.716;37.846;2023-04-24T03:09:20;6.32;;;2.83;;
75129;SDS011;63703;44.716;37.846;2023-04-24T03:11:46;5.43;;;2.42;;
75129;SDS011;63703;44.716;37.846;2023-04-24T03:14:13;5.63;;;2.60;;
75129;SDS011;63703;44.716;37.846;2023-04-24T03:16:39;7.03;;;3.17;;
75129;SDS011;63703;44.716;37.846;2023-04-24T03:19:06;6.30;;;2.55;;
75129;SDS011;63703;44.716;37.846;2023-04-24T03:21:37;6.65;;;2.78;;
75129;SDS011;63703;44.716;37.846;2023-04-24T03:24:09;8.90;;;3.83;;
75129;SDS011;63703;44.716;37.846;2023-04-24T03:26:36;8.90;;;4.53;;
75129;SDS011;63703;44.716;37.846;2023-04-24T03:29:25;7.55;;;2.92;;
75129;SDS011;63703;44.716;37.846;2023-04-24T03:31:51;7.70;;;3.20;;
75129;SDS011;63703;44.716;37.846;2023-04-24T03:34:17;7.30;;;2.90;;
75129;SDS011;63703;44.716;37.846;2023-04-24T03:36:43;6.85;;;3.90;;
75129;SDS011;63703;44.716;37.846;2023-04-24T03:39:09;9.15;;;3.20;;
75129;SDS011;63703;44.716;37.846;2023-04-24T03:41:37;8.60;;;4.00;;
75129;SDS011;63703;44.716;37.846;2023-04-24T03:44:17;7.65;;;2.92;;
75129;SDS011;63703;44.716;37.846;2023-04-24T03:46:44;7.68;;;3.83;;
75129;SDS011;63703;44.716;37.846;2023-04-24T03:49:10;8.10;;;3.55;;
75129;SDS011;63703;44.716;37.846;2023-04-24T03:51:40;7.72;;;3.40;;
75129;SDS011;63703;44.716;37.846;2023-04-24T03:54:16;8.38;;;4.38;;
75129;SDS011;63703;44.716;37.846;2023-04-24T03:56:43;7.70;;;3.42;;
75129;SDS011;63703;44.716;37.846;2023-04-24T03:59:10;6.93;;;3.38;;
75129;SDS011;63703;44.716;37.846;2023-04-24T04:01:36;8.15;;;4.03;;
75129;SDS011;63703;44.716;37.846;2023-04-24T04:04:14;9.30;;;3.17;;
75129;SDS011;63703;44.716;37.846;2023-04-24T04:06:42;8.13;;;3.58;;
75129;SDS011;63703;44.716;37.846;2023-04-24T04:09:09;8.07;;;3.88;;
75129;SDS011;63703;44.716;37.846;2023-04-24T04:11:35;7.50;;;3.75;;
75129;SDS011;63703;44.716;37.846;2023-04-24T04:14:03;8.35;;;2.70;;
75129;SDS011;63703;44.716;37.846;2023-04-24T04:16:30;6.75;;;2.70;;
75129;SDS011;63703;44.716;37.846;2023-04-24T04:19:01;9.07;;;3.45;;
75129;SDS011;63703;44.716;37.846;2023-04-24T04:21:29;6.28;;;2.50;;
75129;SDS011;63703;44.716;37.846;2023-04-24T04:24:06;6.18;;;2.30;;
75129;SDS011;63703;44.716;37.846;2023-04-24T04:29:06;6.30;;;3.03;;
75129;SDS011;63703;44.716;37.846;2023-04-24T04:31:34;6.22;;;2.40;;
75129;SDS011;63703;44.716;37.846;2023-04-24T04:34:05;6.60;;;1.67;;
75129;SDS011;63703;44.716;37.846;2023-04-24T04:36:33;6.55;;;2.78;;
75129;SDS011;63703;44.716;37.846;2023-04-24T04:39:13;5.47;;;2.60;;
75129;SDS011;63703;44.716;37.846;2023-04-24T04:41:57;9.60;;;2.22;;
75129;SDS011;63703;44.716;37.846;2023-04-24T04:44:29;5.50;;;2.53;;
75129;SDS011;63703;44.716;37.846;2023-04-24T04:46:59;8.02;;;3.22;;
75129;SDS011;63703;44.716;37.846;2023-04-24T04:49:34;5.25;;;2.03;;
75129;SDS011;63703;44.716;37.846;2023-04-24T04:52:02;4.20;;;2.22;;
75129;SDS011;63703;44.716;37.846;2023-04-24T04:54:28;7.53;;;2.88;;
75129;SDS011;63703;44.716;37.846;2023-04-24T04:56:55;7.35;;;1.30;;
75129;SDS011;63703;44.716;37.846;2023-04-24T04:59:23;6.97;;;2.90;;
75129;SDS011;63703;44.716;37.846;2023-04-24T05:01:55;5.32;;;1.85;;
75129;SDS011;63703;44.716;37.846;2023-04-24T05:04:24;5.88;;;2.50;;
75129;SDS011;63703;44.716;37.846;2023-04-24T05:06:51;5.80;;;1.90;;
75129;SDS011;63703;44.716;37.846;2023-04-24T05:09:17;6.20;;;2.28;;
75129;SDS011;63703;44.716;37.846;2023-04-24T05:11:52;7.25;;;3.72;;
75129;SDS011;63703;44.716;37.846;2023-04-24T05:14:20;6.47;;;3.65;;
75129;SDS011;63703;44.716;37.846;2023-04-24T05:16:46;7.63;;;2.97;;
75129;SDS011;63703;44.716;37.846;2023-04-24T05:19:13;6.15;;;2.78;;
75129;SDS011;63703;44.716;37.846;2023-04-24T05:21:40;6.60;;;2.88;;
75129;SDS011;63703;44.716;37.846;2023-04-24T05:24:07;6.68;;;2.65;;
75129;SDS011;63703;44.716;37.846;2023-04-24T05:26:59;4.82;;;1.92;;
75129;SDS011;63703;44.716;37.846;2023-04-24T05:29:34;5.47;;;2.15;;
75129;SDS011;63703;44.716;37.846;2023-04-24T05:32:00;5.38;;;2.38;;
75129;SDS011;63703;44.716;37.846;2023-04-24T05:34:28;7.65;;;2.05;;
75129;SDS011;63703;44.716;37.846;2023-04-24T05:36:55;6.53;;;2.53;;
75129;SDS011;63703;44.716;37.846;2023-04-24T05:39:25;8.57;;;3.10;;
75129;SDS011;63703;44.716;37.846;2023-04-24T05:41:51;7.07;;;3.30;;
75129;SDS011;63703;44.716;37.846;2023-04-24T05:44:17;5.30;;;2.55;;
75129;SDS011;63703;44.716;37.846;2023-04-24T05:46:43;8.52;;;4.13;;
75129;SDS011;63703;44.716;37.846;2023-04-24T05:49:10;7.38;;;3.00;;
75129;SDS011;63703;44.716;37.846;2023-04-24T05:51:36;7.22;;;2.97;;
75129;SDS011;63703;44.716;37.846;2023-04-24T05:54:02;8.00;;;3.15;;
75129;SDS011;63703;44.716;37.846;2023-04-24T05:56:29;7.25;;;2.25;;
75129;SDS011;63703;44.716;37.846;2023-04-24T05:58:57;5.90;;;3.05;;
75129;SDS011;63703;44.716;37.846;2023-04-24T06:01:23;7.65;;;3.92;;
75129;SDS011;63703;44.716;37.846;2023-04-24T06:03:58;8.23;;;2.88;;
75129;SDS011;63703;44.716;37.846;2023-04-24T06:06:25;6.57;;;3.28;;
75129;SDS011;63703;44.716;37.846;2023-04-24T06:08:52;8.40;;;3.40;;
75129;SDS011;63703;44.716;37.846;2023-04-24T06:11:18;8.60;;;3.35;;
75129;SDS011;63703;44.716;37.846;2023-04-24T06:13:44;9.70;;;3.05;;
75129;SDS011;63703;44.716;37.846;2023-04-24T06:16:29;8.15;;;2.90;;
75129;SDS011;63703;44.716;37.846;2023-04-24T06:19:02;5.55;;;2.72;;
75129;SDS011;63703;44.716;37.846;2023-04-24T06:21:28;7.35;;;3.65;;
75129;SDS011;63703;44.716;37.846;2023-04-24T06:23:54;6.68;;;2.92;;
75129;SDS011;63703;44.716;37.846;2023-04-24T06:26:21;8.30;;;3.42;;
75129;SDS011;63703;44.716;37.846;2023-04-24T06:28:47;8.75;;;4.25;;
75129;SDS011;63703;44.716;37.846;2023-04-24T06:31:13;11.77;;;4.95;;
75129;SDS011;63703;44.716;37.846;2023-04-24T06:33:39;8.90;;;3.83;;
75129;SDS011;63703;44.716;37.846;2023-04-24T06:36:05;8.07;;;4.20;;
75129;SDS011;63703;44.716;37.846;2023-04-24T06:38:31;10.27;;;5.05;;
75129;SDS011;63703;44.716;37.846;2023-04-24T06:40:57;9.93;;;4.93;;
75129;SDS011;63703;44.716;37.846;2023-04-24T06:43:23;10.75;;;4.50;;
75129;SDS011;63703;44.716;37.846;2023-04-24T06:45:49;7.45;;;4.30;;
75129;SDS011;63703;44.716;37.846;2023-04-24T06:48:15;10.05;;;6.07;;
75129;SDS011;63703;44.716;37.846;2023-04-24T06:50:42;10.63;;;4.00;;
75129;SDS011;63703;44.716;37.846;2023-04-24T06:53:07;9.65;;;4.70;;
75129;SDS011;63703;44.716;37.846;2023-04-24T06:55:36;10.13;;;4.65;;
75129;SDS011;63703;44.716;37.846;2023-04-24T06:58:02;9.27;;;3.30;;
75129;SDS011;63703;44.716;37.846;2023-04-24T07:00:28;6.90;;;3.95;;
75129;SDS011;63703;44.716;37.846;2023-04-24T07:02:55;6.32;;;3.20;;
75129;SDS011;63703;44.716;37.846;2023-04-24T07:05:22;8.63;;;3.03;;
75129;SDS011;63703;44.716;37.846;2023-04-24T07:07:48;7.82;;;4.97;;
75129;SDS011;63703;44.716;37.846;2023-04-24T07:10:15;6.63;;;3.25;;
75129;SDS011;63703;44.716;37.846;2023-04-24T07:12:41;6.90;;;2.83;;
75129;SDS011;63703;44.716;37.846;2023-04-24T07:15:07;6.38;;;2.10;;
75129;SDS011;63703;44.716;37.846;2023-04-24T07:17:34;8.90;;;3.13;;
75129;SDS011;63703;44.716;37.846;2023-04-24T07:20:03;8.50;;;2.17;;
75129;SDS011;63703;44.716;37.846;2023-04-24T08:06:23;9.98;;;5.53;;
75129;SDS011;63703;44.716;37.846;2023-04-24T08:08:53;7.95;;;4.65;;
75129;SDS011;63703;44.716;37.846;2023-04-24T08:11:19;8.27;;;5.03;;
75129;SDS011;63703;44.716;37.846;2023-04-24T08:13:44;7.15;;;3.80;;
75129;SDS011;63703;44.716;37.846;2023-04-24T08:16:10;7.57;;;3.30;;
75129;SDS011;63703;44.716;37.846;2023-04-24T08:18:36;9.13;;;3.75;;
75129;SDS011;63703;44.716;37.846;2023-04-24T08:21:02;7.68;;;3.88;;
75129;SDS011;63703;44.716;37.846;2023-04-24T08:23:28;7.90;;;3.28;;
75129;SDS011;63703;44.716;37.846;2023-04-24T08:25:55;8.88;;;3.60;;
75129;SDS011;63703;44.716;37.846;2023-04-24T08:28:21;6.20;;;2.13;;
75129;SDS011;63703;44.716;37.846;2023-04-24T08:30:47;5.97;;;2.53;;
75129;SDS011;63703;44.716;37.846;2023-04-24T08:33:16;6.38;;;2.30;;
75129;SDS011;63703;44.716;37.846;2023-04-24T08:35:42;7.28;;;3.13;;
75129;SDS011;63703;44.716;37.846;2023-04-24T08:38:08;5.45;;;2.78;;
75129;SDS011;63703;44.716;37.846;2023-04-24T08:40:34;7.13;;;2.90;;
75129;SDS011;63703;44.716;37.846;2023-04-24T08:43:00;4.05;;;2.05;;
75129;SDS011;63703;44.716;37.846;2023-04-24T08:45:26;5.88;;;1.77;;
75129;SDS011;63703;44.716;37.846;2023-04-24T08:47:52;6.90;;;3.83;;
75129;SDS011;63703;44.716;37.846;2023-04-24T08:50:20;5.25;;;2.38;;
75129;SDS011;63703;44.716;37.846;2023-04-24T08:52:49;5.63;;;2.65;;
75129;SDS011;63703;44.716;37.846;2023-04-24T08:55:16;6.32;;;2.53;;
75129;SDS011;63703;44.716;37.846;2023-04-24T08:57:44;7.00;;;2.22;;
75129;SDS011;63703;44.716;37.846;2023-04-24T09:00:11;5.00;;;1.77;;
75129;SDS011;63703;44.716;37.846;2023-04-24T09:02:47;6.47;;;1.75;;
75129;SDS011;63703;44.716;37.846;2023-04-24T09:05:17;4.22;;;2.30;;
75129;SDS011;63703;44.716;37.846;2023-04-24T09:07:53;4.55;;;2.38;;
75129;SDS011;63703;44.716;37.846;2023-04-24T09:10:21;6.10;;;3.97;;
75129;SDS011;63703;44.716;37.846;2023-04-24T09:12:49;10.82;;;2.75;;
75129;SDS011;63703;44.716;37.846;2023-04-24T09:15:16;7.10;;;3.08;;
75129;SDS011;63703;44.716;37.846;2023-04-24T09:17:43;7.30;;;3.88;;
75129;SDS011;63703;44.716;37.846;2023-04-24T09:20:10;10.48;;;4.88;;
75129;SDS011;63703;44.716;37.846;2023-04-24T09:22:36;6.18;;;3.47;;
75129;SDS011;63703;44.716;37.846;2023-04-24T09:25:03;7.57;;;3.72;;
75129;SDS011;63703;44.716;37.846;2023-04-24T09:27:32;6.75;;;3.72;;
75129;SDS011;63703;44.716;37.846;2023-04-24T09:29:59;7.63;;;2.75;;
75129;SDS011;63703;44.716;37.846;2023-04-24T09:32:26;7.78;;;3.15;;
75129;SDS011;63703;44.716;37.846;2023-04-24T09:37:36;9.10;;;4.47;;
75129;SDS011;63703;44.716;37.846;2023-04-24T09:40:16;9.15;;;3.45;;
75129;SDS011;63703;44.716;37.846;2023-04-24T09:42:44;8.43;;;3.72;;
75129;SDS011;63703;44.716;37.846;2023-04-24T09:45:17;7.22;;;4.05;;
75129;SDS011;63703;44.716;37.846;2023-04-24T09:47:43;9.55;;;4.43;;
75129;SDS011;63703;44.716;37.846;2023-04-24T09:50:13;12.65;;;5.55;;
75129;SDS011;63703;44.716;37.846;2023-04-24T09:52:41;8.32;;;4.80;;
75129;SDS011;63703;44.716;37.846;2023-04-24T09:55:17;10.88;;;5.40;;
75129;SDS011;63703;44.716;37.846;2023-04-24T10:00:22;10.57;;;5.85;;
75129;SDS011;63703;44.716;37.846;2023-04-24T10:02:50;11.02;;;4.28;;
75129;SDS011;63703;44.716;37.846;2023-04-24T10:05:21;10.27;;;4.85;;
75129;SDS011;63703;44.716;37.846;2023-04-24T10:07:49;7.72;;;3.65;;
75129;SDS011;63703;44.716;37.846;2023-04-24T10:10:15;9.23;;;2.80;;
75129;SDS011;63703;44.716;37.846;2023-04-24T10:12:41;8.80;;;4.03;;
75129;SDS011;63703;44.716;37.846;2023-04-24T10:15:09;7.47;;;3.00;;
75129;SDS011;63703;44.716;37.846;2023-04-24T10:17:37;8.38;;;3.42;;
75129;SDS011;63703;44.716;37.846;2023-04-24T10:20:05;9.07;;;4.60;;
75129;SDS011;63703;44.716;37.846;2023-04-24T10:22:32;10.30;;;4.28;;
75129;SDS011;63703;44.716;37.846;2023-04-24T10:24:58;9.50;;;3.95;;
75129;SDS011;63703;44.716;37.846;2023-04-24T10:27:25;9.02;;;4.15;;
75129;SDS011;63703;44.716;37.846;2023-04-24T10:29:53;13.00;;;4.25;;
75129;SDS011;63703;44.716;37.846;2023-04-24T10:32:19;11.27;;;5.07;;
75129;SDS011;63703;44.716;37.846;2023-04-24T10:34:45;10.75;;;3.95;;
75129;SDS011;63703;44.716;37.846;2023-04-24T10:37:11;12.20;;;4.57;;
75129;SDS011;63703;44.716;37.846;2023-04-24T10:39:38;9.20;;;4.25;;
75129;SDS011;63703;44.716;37.846;2023-04-24T10:42:15;10.63;;;3.83;;
75129;SDS011;63703;44.716;37.846;2023-04-24T10:44:41;8.50;;;3.38;;
75129;SDS011;63703;44.716;37.846;2023-04-24T10:47:12;10.23;;;3.13;;
75129;SDS011;63703;44.716;37.846;2023-04-24T10:49:39;9.35;;;4.05;;
75129;SDS011;63703;44.716;37.846;2023-04-24T10:52:05;8.50;;;4.35;;
75129;SDS011;63703;44.716;37.846;2023-04-24T10:54:41;9.50;;;3.50;;
75129;SDS011;63703;44.716;37.846;2023-04-24T10:59:48;7.35;;;2.78;;
75129;SDS011;63703;44.716;37.846;2023-04-24T11:02:38;8.32;;;4.20;;
75129;SDS011;63703;44.716;37.846;2023-04-24T11:05:05;8.10;;;3.78;;
75129;SDS011;63703;44.716;37.846;2023-04-24T11:10:39;9.02;;;3.35;;
75129;SDS011;63703;44.716;37.846;2023-04-24T11:13:06;7.38;;;4.35;;
75129;SDS011;63703;44.716;37.846;2023-04-24T11:15:32;7.70;;;3.50;;
75129;SDS011;63703;44.716;37.846;2023-04-24T11:17:58;10.05;;;4.18;;
75129;SDS011;63703;44.716;37.846;2023-04-24T11:20:24;10.07;;;4.38;;
75129;SDS011;63703;44.716;37.846;2023-04-24T11:22:52;10.45;;;4.00;;
75129;SDS011;63703;44.716;37.846;2023-04-24T11:25:23;10.57;;;4.22;;
75129;SDS011;63703;44.716;37.846;2023-04-24T11:27:50;10.18;;;6.35;;
75129;SDS011;63703;44.716;37.846;2023-04-24T11:30:28;8.80;;;4.47;;
75129;SDS011;63703;44.716;37.846;2023-04-24T11:32:56;7.20;;;4.00;;
75129;SDS011;63703;44.716;37.846;2023-04-24T11:35:29;10.55;;;4.25;;
75129;SDS011;63703;44.716;37.846;2023-04-24T11:37:56;9.70;;;4.90;;
75129;SDS011;63703;44.716;37.846;2023-04-24T11:40:22;10.93;;;5.70;;
75129;SDS011;63703;44.716;37.846;2023-04-24T11:42:49;11.50;;;4.90;;
75129;SDS011;63703;44.716;37.846;2023-04-24T11:45:23;10.23;;;5.45;;
75129;SDS011;63703;44.716;37.846;2023-04-24T11:47:52;7.00;;;4.50;;
75129;SDS011;63703;44.716;37.846;2023-04-24T11:50:19;11.15;;;4.05;;
75129;SDS011;63703;44.716;37.846;2023-04-24T11:52:47;7.80;;;4.57;;
75129;SDS011;63703;44.716;37.846;2023-04-24T11:57:47;8.07;;;4.18;;
75129;SDS011;63703;44.716;37.846;2023-04-24T12:00:21;10.15;;;4.45;;
75129;SDS011;63703;44.716;37.846;2023-04-24T12:02:51;8.38;;;3.20;;
75129;SDS011;63703;44.716;37.846;2023-04-24T12:05:29;7.97;;;4.32;;
75129;SDS011;63703;44.716;37.846;2023-04-24T12:07:56;7.45;;;4.15;;
75129;SDS011;63703;44.716;37.846;2023-04-24T12:10:23;7.07;;;3.63;;
75129;SDS011;63703;44.716;37.846;2023-04-24T12:12:51;6.85;;;3.85;;
75129;SDS011;63703;44.716;37.846;2023-04-24T12:15:18;8.93;;;4.63;;
75129;SDS011;63703;44.716;37.846;2023-04-24T12:17:45;12.82;;;4.68;;
75129;SDS011;63703;44.716;37.846;2023-04-24T12:20:11;10.02;;;4.85;;
75129;SDS011;63703;44.716;37.846;2023-04-24T12:22:47;8.70;;;4.25;;
75129;SDS011;63703;44.716;37.846;2023-04-24T12:25:20;12.40;;;4.10;;
75129;SDS011;63703;44.716;37.846;2023-04-24T12:27:52;11.48;;;5.80;;
75129;SDS011;63703;44.716;37.846;2023-04-24T12:30:40;11.00;;;5.38;;
75129;SDS011;63703;44.716;37.846;2023-04-24T12:33:10;12.48;;;7.07;;
75129;SDS011;63703;44.716;37.846;2023-04-24T12:35:36;11.77;;;6.75;;
75129;SDS011;63703;44.716;37.846;2023-04-24T12:38:08;12.13;;;6.32;;
75129;SDS011;63703;44.716;37.846;2023-04-24T12:40:36;13.77;;;6.93;;
75129;SDS011;63703;44.716;37.846;2023-04-24T12:43:03;13.27;;;6.70;;
75129;SDS011;63703;44.716;37.846;2023-04-24T12:45:42;12.73;;;6.28;;
75129;SDS011;63703;44.716;37.846;2023-04-24T12:48:08;10.63;;;5.32;;
75129;SDS011;63703;44.716;37.846;2023-04-24T12:50:34;13.95;;;6.07;;
75129;SDS011;63703;44.716;37.846;2023-04-24T12:53:00;13.77;;;7.32;;
75129;SDS011;63703;44.716;37.846;2023-04-24T12:55:25;12.93;;;6.43;;
75129;SDS011;63703;44.716;37.846;2023-04-24T12:57:51;11.52;;;6.57;;
75129;SDS011;63703;44.716;37.846;2023-04-24T13:00:18;14.88;;;7.95;;
75129;SDS011;63703;44.716;37.846;2023-04-24T13:02:44;11.90;;;6.15;;
75129;SDS011;63703;44.716;37.846;2023-04-24T13:05:10;13.90;;;6.90;;
75129;SDS011;63703;44.716;37.846;2023-04-24T13:07:39;12.55;;;5.78;;
75129;SDS011;63703;44.716;37.846;2023-04-24T13:10:05;13.40;;;6.30;;
75129;SDS011;63703;44.716;37.846;2023-04-24T13:12:32;13.07;;;6.82;;
75129;SDS011;63703;44.716;37.846;2023-04-24T13:14:58;15.23;;;6.88;;
75129;SDS011;63703;44.716;37.846;2023-04-24T13:17:24;12.95;;;7.55;;
75129;SDS011;63703;44.716;37.846;2023-04-24T13:19:50;12.82;;;7.15;;
75129;SDS011;63703;44.716;37.846;2023-04-24T13:22:17;12.93;;;6.78;;
75129;SDS011;63703;44.716;37.846;2023-04-24T13:24:46;15.48;;;6.53;;
75129;SDS011;63703;44.716;37.846;2023-04-24T13:27:15;12.27;;;6.50;;
75129;SDS011;63703;44.716;37.846;2023-04-24T13:29:42;15.48;;;8.00;;
75129;SDS011;63703;44.716;37.846;2023-04-24T13:32:08;15.25;;;7.95;;
75129;SDS011;63703;44.716;37.846;2023-04-24T13:34:34;16.80;;;9.80;;
75129;SDS011;63703;44.716;37.846;2023-04-24T13:37:01;13.85;;;7.65;;
75129;SDS011;63703;44.716;37.846;2023-04-24T13:39:29;12.48;;;7.63;;
75129;SDS011;63703;44.716;37.846;2023-04-24T13:41:55;14.88;;;8.38;;
75129;SDS011;63703;44.716;37.846;2023-04-24T13:44:22;16.73;;;7.38;;
75129;SDS011;63703;44.716;37.846;2023-04-24T13:46:49;12.65;;;6.32;;
75129;SDS011;63703;44.716;37.846;2023-04-24T13:49:19;12.68;;;5.85;;
75129;SDS011;63703;44.716;37.846;2023-04-24T13:51:46;9.50;;;5.43;;
75129;SDS011;63703;44.716;37.846;2023-04-24T13:54:12;9.85;;;6.75;;
75129;SDS011;63703;44.716;37.846;2023-04-24T13:56:39;9.82;;;6.00;;
75129;SDS011;63703;44.716;37.846;2023-04-24T13:59:05;9.00;;;3.97;;
75129;SDS011;63703;44.716;37.846;2023-04-24T14:01:32;9.52;;;4.88;;
75129;SDS011;63703;44.716;37.846;2023-04-24T14:03:58;9.63;;;3.85;;
75129;SDS011;63703;44.716;37.846;2023-04-24T14:06:24;8.18;;;4.38;;
75129;SDS011;63703;44.716;37.846;2023-04-24T14:08:50;8.88;;;5.40;;
75129;SDS011;63703;44.716;37.846;2023-04-24T14:11:16;13.73;;;7.93;;
75129;SDS011;63703;44.716;37.846;2023-04-24T14:13:43;8.43;;;5.15;;
75129;SDS011;63703;44.716;37.846;2023-04-24T14:16:10;8.07;;;5.10;;
75129;SDS011;63703;44.716;37.846;2023-04-24T14:18:36;12.07;;;6.25;;
75129;SDS011;63703;44.716;37.846;2023-04-24T14:21:03;7.10;;;4.43;;
75129;SDS011;63703;44.716;37.846;2023-04-24T14:23:29;8.82;;;5.13;;
75129;SDS011;63703;44.716;37.846;2023-04-24T14:25:56;10.82;;;5.15;;
75129;SDS011;63703;44.716;37.846;2023-04-24T14:28:23;7.00;;;4.05;;
75129;SDS011;63703;44.716;37.846;2023-04-24T14:30:49;9.43;;;4.35;;
75129;SDS011;63703;44.716;37.846;2023-04-24T14:33:15;10.63;;;6.10;;
75129;SDS011;63703;44.716;37.846;2023-04-24T14:35:41;9.13;;;4.32;;
75129;SDS011;63703;44.716;37.846;2023-04-24T14:38:08;9.73;;;4.20;;
75129;SDS011;63703;44.716;37.846;2023-04-24T14:40:34;10.15;;;5.07;;
75129;SDS011;63703;44.716;37.846;2023-04-24T14:43:01;11.43;;;6.45;;
75129;SDS011;63703;44.716;37.846;2023-04-24T14:45:27;11.75;;;6.70;;
75129;SDS011;63703;44.716;37.846;2023-04-24T14:47:53;15.50;;;6.65;;
75129;SDS011;63703;44.716;37.846;2023-04-24T14:50:19;11.35;;;5.43;;
75129;SDS011;63703;44.716;37.846;2023-04-24T14:52:46;10.88;;;5.60;;
75129;SDS011;63703;44.716;37.846;2023-04-24T14:55:12;11.05;;;5.00;;
75129;SDS011;63703;44.716;37.846;2023-04-24T14:57:38;10.55;;;5.88;;
75129;SDS011;63703;44.716;37.846;2023-04-24T15:00:05;9.75;;;7.00;;
75129;SDS011;63703;44.716;37.846;2023-04-24T15:02:34;9.63;;;5.70;;
75129;SDS011;63703;44.716;37.846;2023-04-24T15:05:02;11.25;;;6.50;;
75129;SDS011;63703;44.716;37.846;2023-04-24T15:07:29;10.00;;;6.00;;
75129;SDS011;63703;44.716;37.846;2023-04-24T15:09:56;11.40;;;5.95;;
75129;SDS011;63703;44.716;37.846;2023-04-24T15:12:22;12.82;;;6.10;;
75129;SDS011;63703;44.716;37.846;2023-04-24T15:14:48;12.90;;;6.22;;
75129;SDS011;63703;44.716;37.846;2023-04-24T15:17:14;11.68;;;5.60;;
75129;SDS011;63703;44.716;37.846;2023-04-24T15:19:40;9.35;;;5.45;;
75129;SDS011;63703;44.716;37.846;2023-04-24T15:22:06;12.98;;;6.15;;
75129;SDS011;63703;44.716;37.846;2023-04-24T15:24:32;9.98;;;6.45;;
75129;SDS011;63703;44.716;37.846;2023-04-24T15:26:58;12.35;;;7.15;;
75129;SDS011;63703;44.716;37.846;2023-04-24T15:29:25;10.07;;;6.95;;
75129;SDS011;63703;44.716;37.846;2023-04-24T15:31:52;10.82;;;6.63;;
75129;SDS011;63703;44.716;37.846;2023-04-24T15:34:18;9.88;;;5.57;;